الصفحة الرئيسية
METAR-TAF:

METAR-TAF

مطار :

Torrington, وايومنغ, الولايات المتحدة

Torrington Municipal Airport

دائرة عرض: 42-03-53N, خط طول: 104-09-10W, ارتفاع: 1282 متر

مراقبة الطقس الحالي

تاريخ ووقت الإصدار 11 دقيقة قبل الساعة 15:53UTC
رياح هادئة
درجة الحرارة 6°درجة مئوية
الرطوبة 61%
ضغط 1025 hPa
الرؤية: 16.1 كم
سماء صافية

METAR: KTOR 251553Z AUTO 00000KT 10SM CLR 06/M01 A3027 RMK AO2 SLP257 T00611006

زمن: 10:04 (16:04 UTC)


TAF: مفقودة

أرصاد الطقس والتوقعات من أكثر من 4000 مطار (تقارير الطقس للمطار METAR والتنبؤ بالطقس بالمطارTAF).

المحطات المتاحة هي النقط الصفراء والحمراء على الخريطة.

حرك المؤشر فوق النقطة لمعرفة اسم المحطة.

ثم انقر لمعرفة أرصاد وتوقعات الطقس.

لتغيير الخارطة: اضغط على الأزرار الخضراء مع رمز الصليب الأسود للتكبير. على الزر الأخضر مع شرطة للتصغير، أو على الأسهم الخضراء للخرائط المجاورة.


METAR-TAF: